Time;durP1;ratioP1;P1;durP2;ratioP2;P2;SDS_P1;SDS_P2;PMS_P1;PMS_P2;Temp;Humidity;BMP_temperature;BMP_pressure;BME280_temperature;BME280_humidity;BME280_pressure;Samples;Min_cycle;Max_cycle;Signal;HPM_P1;HPM_P2
2022/04/05 00:02:15;;;;;;;12.03;10.73;;;10.00;99.90;;;;;;5033072;28;20030;-75
2022/04/05 00:04:41;;;;;;;12.37;10.13;;;9.90;99.90;;;;;;5032678;28;20080;-75
2022/04/05 00:07:07;;;;;;;11.40;9.87;;;;;;;;;;5033166;28;20032;-75
2022/04/05 00:09:33;;;;;;;13.40;9.33;;;9.90;99.90;;;;;;5032084;28;20038;-75
2022/04/05 00:11:59;;;;;;;10.67;9.23;;;9.90;99.90;;;;;;5032552;28;20045;-75
2022/04/05 00:14:25;;;;;;;12.57;10.13;;;9.80;99.90;;;;;;5032858;28;20111;-74
2022/04/05 00:16:51;;;;;;;12.60;9.53;;;;;;;;;;5032671;28;20080;-75
2022/04/05 00:19:19;;;;;;;13.27;8.83;;;;;;;;;;5033101;28;20036;-75
2022/04/05 00:21:45;;;;;;;10.00;8.13;;;;;;;;;;5032433;28;20057;-75
2022/04/05 00:24:11;;;;;;;8.70;6.10;;;9.70;99.90;;;;;;5014218;28;20037;-75
2022/04/05 00:26:37;;;;;;;5.27;4.47;;;9.50;99.90;;;;;;5031929;28;20033;-76
2022/04/05 00:29:02;;;;;;;7.03;5.30;;;9.40;99.90;;;;;;5031704;28;20084;-75
2022/04/05 00:31:28;;;;;;;5.07;4.13;;;9.30;99.90;;;;;;5032409;28;20033;-75
2022/04/05 00:33:53;;;;;;;5.77;3.87;;;9.10;99.90;;;;;;5032712;28;20022;-75
2022/04/05 00:36:19;;;;;;;4.27;3.43;;;9.10;99.90;;;;;;5032550;28;20124;-75
2022/04/05 00:38:44;;;;;;;3.20;2.00;;;9.00;99.90;;;;;;5032613;28;20025;-75
2022/04/05 00:41:10;;;;;;;2.43;1.40;;;9.00;99.90;;;;;;5025913;28;20040;-75
2022/04/05 00:43:36;;;;;;;3.27;1.20;;;;;;;;;;5012259;28;20051;-75
2022/04/05 00:46:02;;;;;;;2.63;1.13;;;8.70;99.90;;;;;;5013051;28;20034;-75
2022/04/05 00:48:59;;;;;;;1.60;1.03;;;8.60;99.90;;;;;;5012477;28;20026;-75
2022/04/05 00:51:26;;;;;;;3.03;1.20;;;;;;;;;;5012673;28;20096;-75
2022/04/05 00:53:53;;;;;;;1.63;1.40;;;8.50;99.90;;;;;;5013246;28;20083;-75
2022/04/05 00:56:20;;;;;;;4.17;1.30;;;8.50;99.90;;;;;;5032497;28;20029;-74
2022/04/05 00:58:53;;;;;;;5.67;1.20;;;8.60;99.90;;;;;;5032083;28;20033;-75
2022/04/05 01:01:21;;;;;;;4.00;1.42;;;8.40;99.90;;;;;;5031371;28;20398;-75
2022/04/05 01:03:49;;;;;;;2.30;1.20;;;8.50;99.90;;;;;;5014144;28;20156;-75
2022/04/05 01:06:17;;;;;;;2.20;1.20;;;8.50;99.90;;;;;;5032225;28;20044;-75
2022/04/05 01:08:46;;;;;;;5.17;1.90;;;8.40;99.90;;;;;;5026731;28;20165;-75
2022/04/05 01:11:12;;;;;;;4.73;1.30;;;8.40;99.90;;;;;;5012338;28;20022;-75
2022/04/05 01:13:37;;;;;;;4.13;1.37;;;8.30;99.90;;;;;;5011969;28;20022;-75
2022/04/05 01:16:03;;;;;;;3.13;1.63;;;;;;;;;;4994840;28;20030;-75
2022/04/05 01:18:29;;;;;;;2.63;1.73;;;;;;;;;;5012042;28;20029;-76
2022/04/05 01:20:56;;;;;;;2.10;1.33;;;8.40;99.90;;;;;;5012391;28;20415;-75
2022/04/05 01:23:22;;;;;;;2.77;1.60;;;8.30;99.90;;;;;;5012775;28;20097;-75
2022/04/05 01:25:49;;;;;;;6.40;1.70;;;;;;;;;;5030369;28;20836;-76
2022/04/05 01:28:15;;;;;;;3.97;2.20;;;8.30;99.90;;;;;;5032001;28;20018;-75
2022/04/05 01:30:41;;;;;;;4.70;1.90;;;8.50;99.90;;;;;;5031306;28;20116;-75
2022/04/05 01:33:07;;;;;;;4.30;2.10;;;8.50;99.90;;;;;;5031831;28;20025;-75
2022/04/05 01:35:34;;;;;;;3.73;1.83;;;;;;;;;;5031252;28;20072;-75
2022/04/05 01:38:01;;;;;;;2.70;1.70;;;8.40;99.90;;;;;;5031201;28;20025;-76
2022/04/05 01:40:27;;;;;;;4.97;3.00;;;;;;;;;;5013090;28;20049;-75
2022/04/05 01:42:53;;;;;;;3.50;2.37;;;8.20;99.90;;;;;;5011940;28;20475;-75
2022/04/05 01:45:19;;;;;;;5.97;2.57;;;;;;;;;;5012635;28;20121;-75
2022/04/05 01:47:45;;;;;;;3.43;2.83;;;8.30;99.90;;;;;;5011194;28;20861;-75
2022/04/05 01:50:11;;;;;;;3.97;3.40;;;;;;;;;;5011766;28;20030;-75
2022/04/05 01:52:36;;;;;;;8.13;2.80;;;8.40;99.90;;;;;;5010545;28;20030;-76
2022/04/05 01:55:03;;;;;;;3.23;2.83;;;8.30;99.90;;;;;;5011580;28;20109;-75
2022/04/05 01:57:28;;;;;;;3.73;2.57;;;8.50;99.90;;;;;;5026164;28;20720;-75
2022/04/05 01:59:54;;;;;;;4.20;2.40;;;8.30;99.90;;;;;;5031445;28;20025;-76
2022/04/05 02:02:19;;;;;;;5.53;3.07;;;8.40;99.90;;;;;;5031276;28;20383;-75
2022/04/05 02:04:45;;;;;;;3.53;2.70;;;8.30;99.90;;;;;;5030580;28;20091;-76
2022/04/05 02:07:16;;;;;;;5.77;3.30;;;10.20;99.90;;;;;;5012905;28;20035;-75
2022/04/05 02:09:42;;;;;;;4.20;2.87;;;8.50;99.90;;;;;;5030483;28;20021;-76
2022/04/05 02:12:09;;;;;;;4.27;2.37;;;8.40;99.90;;;;;;5019415;28;20105;-76
2022/04/05 02:14:35;;;;;;;3.87;2.77;;;8.40;99.90;;;;;;5010798;28;20386;-76
2022/04/05 02:17:01;;;;;;;4.23;3.50;;;8.50;99.90;;;;;;4993627;28;20026;-77
2022/04/05 02:19:27;;;;;;;4.53;3.30;;;;;;;;;;5010967;28;20050;-76
2022/04/05 02:21:52;;;;;;;5.53;3.10;;;8.30;99.90;;;;;;5010517;28;20101;-76
2022/04/05 02:24:18;;;;;;;8.63;4.27;;;8.40;99.90;;;;;;4993499;28;20033;-75
2022/04/05 02:26:44;;;;;;;4.83;3.20;;;;;;;;;;5010459;28;20025;-76
2022/04/05 02:29:09;;;;;;;4.80;3.77;;;8.40;99.90;;;;;;4993504;28;20034;-76
2022/04/05 02:31:35;;;;;;;5.87;3.23;;;8.40;99.90;;;;;;5012908;28;20092;-76
2022/04/05 02:34:00;;;;;;;3.57;3.10;;;8.30;99.90;;;;;;5010765;28;20033;-75
2022/04/05 02:36:26;;;;;;;6.90;4.17;;;8.40;99.90;;;;;;5010089;28;20050;-75
2022/04/05 02:38:52;;;;;;;3.90;3.07;;;8.40;99.90;;;;;;5010687;28;20057;-75
2022/04/05 02:41:17;;;;;;;7.43;2.87;;;8.40;99.90;;;;;;5010713;28;20033;-75
2022/04/05 02:43:43;;;;;;;8.57;3.73;;;8.30;99.90;;;;;;5010272;28;20030;-76
2022/04/05 02:46:11;;;;;;;7.37;3.23;;;7.90;99.90;;;;;;5010848;28;20030;-76
2022/04/05 02:48:43;;;;;;;7.50;3.37;;;8.40;99.90;;;;;;5010140;28;20022;-75
2022/04/05 02:51:09;;;;;;;7.73;2.90;;;;;;;;;;5009940;28;20033;-74
2022/04/05 02:53:35;;;;;;;6.63;2.67;;;;;;;;;;5010117;28;20032;-75
2022/04/05 02:56:01;;;;;;;6.17;3.43;;;8.20;99.90;;;;;;5010599;28;20082;-75
2022/04/05 02:58:27;;;;;;;7.77;3.30;;;;;;;;;;5027675;28;20116;-75
2022/04/05 03:00:52;;;;;;;6.60;4.07;;;8.20;99.90;;;;;;5029818;28;20025;-75
2022/04/05 03:03:18;;;;;;;5.33;3.63;;;8.20;99.90;;;;;;5012628;28;20032;-75
2022/04/05 03:05:43;;;;;;;6.00;3.60;;;8.00;99.90;;;;;;5028277;28;20033;-74
2022/04/05 03:08:09;;;;;;;6.60;4.30;;;8.20;99.90;;;;;;5030206;28;20482;-75
2022/04/05 03:10:34;;;;;;;9.23;3.53;;;8.10;99.90;;;;;;5029685;28;20053;-75
2022/04/05 03:13:01;;;;;;;7.23;3.63;;;8.10;99.90;;;;;;5029249;28;20051;-75
2022/04/05 03:15:27;;;;;;;8.87;4.93;;;;;;;;;;5016532;28;20018;-75
2022/04/05 03:17:55;;;;;;;7.70;3.77;;;8.10;99.90;;;;;;5030001;28;20025;-75
2022/04/05 03:20:20;;;;;;;6.70;3.33;;;8.10;99.90;;;;;;5011767;28;20032;-75
2022/04/05 03:22:46;;;;;;;6.70;3.30;;;8.10;99.90;;;;;;5011538;28;20033;-75
2022/04/05 03:25:11;;;;;;;4.37;2.93;;;8.10;99.90;;;;;;5033183;28;20033;-75
2022/04/05 03:27:39;;;;;;;4.23;3.10;;;8.10;99.90;;;;;;5033391;28;20474;-75
2022/04/05 03:30:05;;;;;;;7.90;4.27;;;8.10;99.90;;;;;;5034106;28;20025;-75
2022/04/05 03:32:32;;;;;;;8.27;3.60;;;;;;;;;;5004852;28;20026;-75
2022/04/05 03:34:58;;;;;;;7.10;3.70;;;8.20;99.90;;;;;;5018162;28;20045;-75
2022/04/05 03:37:23;;;;;;;5.77;4.27;;;8.10;99.90;;;;;;5021215;28;20086;-75
2022/04/05 03:39:49;;;;;;;9.13;4.37;;;;;;;;;;5013874;28;20030;-75
2022/04/05 03:42:15;;;;;;;8.87;4.33;;;8.20;99.90;;;;;;5032959;28;20037;-75
2022/04/05 03:44:40;;;;;;;6.20;4.80;;;7.70;99.90;;;;;;5033315;28;20048;-75
2022/04/05 03:47:06;;;;;;;8.53;4.53;;;;;;;;;;5033722;28;20029;-75
2022/04/05 03:49:32;;;;;;;6.00;4.70;;;7.90;99.90;;;;;;5032827;28;20032;-74
2022/04/05 03:51:58;;;;;;;7.43;4.70;;;;;;;;;;5006582;28;20076;-75
2022/04/05 03:54:23;;;;;;;6.53;4.43;;;8.00;99.90;;;;;;5013759;28;20058;-75
2022/04/05 03:56:49;;;;;;;13.00;4.73;;;;;;;;;;5013494;28;20065;-75
2022/04/05 03:59:15;;;;;;;8.93;5.23;;;8.10;99.90;;;;;;5013757;28;20033;-75
2022/04/05 04:01:40;;;;;;;6.27;4.17;;;8.20;99.90;;;;;;5013214;28;20030;-75
2022/04/05 04:04:06;;;;;;;7.53;4.57;;;;;;;;;;5012969;28;20057;-74
2022/04/05 04:06:32;;;;;;;8.73;5.07;;;8.40;99.90;;;;;;5013374;28;20033;-75
2022/04/05 04:08:58;;;;;;;11.53;5.47;;;;;;;;;;5023505;28;20457;-75
2022/04/05 04:11:23;;;;;;;9.30;5.50;;;8.20;99.90;;;;;;5033129;28;20022;-75
2022/04/05 04:13:49;;;;;;;7.37;4.40;;;;;;;;;;5032829;28;20034;-75
2022/04/05 04:16:14;;;;;;;7.80;5.13;;;8.20;99.90;;;;;;5033293;28;20029;-75
2022/04/05 04:18:40;;;;;;;6.90;4.57;;;8.30;99.90;;;;;;5032216;28;20475;-75
2022/04/05 04:21:05;;;;;;;6.00;4.60;;;8.40;99.90;;;;;;5033549;28;20021;-75
2022/04/05 04:23:31;;;;;;;9.93;4.57;;;8.30;99.90;;;;;;5026823;28;20044;-74
2022/04/05 04:25:57;;;;;;;7.67;4.67;;;;;;;;;;5013117;28;20420;-75
2022/04/05 04:28:23;;;;;;;7.13;4.60;;;;;;;;;;5013041;28;20407;-75
2022/04/05 04:30:49;;;;;;;8.40;4.73;;;;;;;;;;5012868;28;20025;-75
2022/04/05 04:33:14;;;;;;;6.73;5.00;;;8.30;99.90;;;;;;5012775;28;20021;-75
2022/04/05 04:35:42;;;;;;;11.10;6.07;;;8.30;99.90;;;;;;5012625;28;20050;-75
2022/04/05 04:38:08;;;;;;;8.83;5.63;;;;;;;;;;5016139;28;20033;-75
2022/04/05 04:40:36;;;;;;;8.67;5.87;;;8.30;99.90;;;;;;5032394;28;20105;-75
2022/04/05 04:43:03;;;;;;;9.43;5.37;;;8.30;99.90;;;;;;5015280;28;20040;-75
2022/04/05 04:45:31;;;;;;;10.20;5.47;;;8.20;99.90;;;;;;5031803;28;20045;-75
2022/04/05 04:47:57;;;;;;;10.43;6.17;;;8.00;99.90;;;;;;5032553;28;20100;-75
2022/04/05 04:50:23;;;;;;;11.50;6.13;;;8.30;99.90;;;;;;5032487;28;20116;-75
2022/04/05 04:52:48;;;;;;;16.20;6.90;;;8.30;99.90;;;;;;5014752;28;20112;-75
2022/04/05 04:55:14;;;;;;;8.23;5.83;;;;;;;;;;5013043;28;20033;-75
2022/04/05 04:57:40;;;;;;;8.90;6.03;;;;;;;;;;5031988;28;20105;-75
2022/04/05 05:00:06;;;;;;;9.10;5.53;;;8.10;99.90;;;;;;5031944;28;20034;-75
2022/04/05 05:02:43;;;;;;;9.33;5.40;;;8.50;99.90;;;;;;5031908;28;20064;-75
2022/04/05 05:05:09;;;;;;;12.70;6.93;;;;;;;;;;5014394;28;20367;-76
2022/04/05 05:07:35;;;;;;;13.17;6.57;;;;;;;;;;5031878;28;20033;-76
2022/04/05 05:10:01;;;;;;;11.03;6.07;;;;;;;;;;4995976;28;20076;-75
2022/04/05 05:12:27;;;;;;;14.93;6.87;;;;;;;;;;5012012;28;20065;-76
2022/04/05 05:14:52;;;;;;;10.90;7.13;;;8.50;99.90;;;;;;5011667;28;20511;-75
2022/04/05 05:17:18;;;;;;;11.70;7.27;;;;;;;;;;5012318;28;20060;-76
2022/04/05 05:19:44;;;;;;;15.17;8.80;;;;;;;;;;5011696;28;20072;-77
2022/04/05 05:22:10;;;;;;;16.67;8.03;;;8.40;99.90;;;;;;4994675;28;20501;-77
2022/04/05 05:24:36;;;;;;;12.40;7.30;;;8.10;99.90;;;;;;5047806;23;20021;-71
2022/04/05 05:27:01;;;;;;;14.13;8.30;;;8.50;99.90;;;;;;4973869;28;20354;-71
2022/04/05 05:29:27;;;;;;;14.23;8.03;;;;;;;;;;4972368;28;20130;-70
2022/04/05 05:31:53;;;;;;;14.30;8.80;;;8.50;99.90;;;;;;4990476;28;20460;-70
2022/04/05 05:34:22;;;;;;;16.60;9.13;;;8.50;99.90;;;;;;4991246;28;20041;-70
2022/04/05 05:36:48;;;;;;;21.43;9.13;;;8.00;99.90;;;;;;4991290;28;20034;-70
2022/04/05 05:39:14;;;;;;;16.20;8.97;;;;;;;;;;4990639;28;20041;-71
2022/04/05 05:41:39;;;;;;;19.00;10.80;;;8.50;99.90;;;;;;4990820;28;20439;-71
2022/04/05 05:44:05;;;;;;;14.53;8.23;;;8.40;99.90;;;;;;4990747;28;20034;-70
2022/04/05 05:46:31;;;;;;;16.57;10.57;;;;;;;;;;4990128;28;20109;-71
2022/04/05 05:48:56;;;;;;;22.23;10.73;;;8.60;99.90;;;;;;4991187;28;20030;-71
2022/04/05 05:51:22;;;;;;;21.50;11.43;;;;;;;;;;4991062;28;20022;-71
2022/04/05 05:53:48;;;;;;;20.93;11.13;;;8.40;99.90;;;;;;4990773;28;20022;-70
2022/04/05 05:56:14;;;;;;;21.63;11.50;;;8.50;99.90;;;;;;4986578;28;20034;-70
2022/04/05 05:58:40;;;;;;;23.27;12.03;;;;;;;;;;4989709;28;20046;-70
2022/04/05 06:01:06;;;;;;;25.70;14.27;;;;;;;;;;4991023;28;20080;-70
2022/04/05 06:03:32;;;;;;;21.33;11.47;;;9.10;99.90;;;;;;4990289;28;20415;-74
2022/04/05 06:05:58;;;;;;;28.73;15.50;;;;;;;;;;4990568;28;20035;-74
2022/04/05 06:08:24;;;;;;;28.07;15.73;;;;;;;;;;4987483;28;20030;-75
2022/04/05 06:10:50;;;;;;;32.10;17.43;;;;;;;;;;4990012;28;20026;-74
2022/04/05 06:13:16;;;;;;;30.43;18.93;;;;;;;;;;4990234;28;20038;-74
2022/04/05 06:15:42;;;;;;;23.77;15.87;;;8.70;99.90;;;;;;4989971;28;20034;-74
2022/04/05 06:18:07;;;;;;;23.60;16.80;;;9.00;99.90;;;;;;4990489;28;20042;-75
2022/04/05 06:20:33;;;;;;;24.30;17.10;;;9.30;99.90;;;;;;4990018;28;20033;-75
2022/04/05 06:23:02;;;;;;;34.17;21.93;;;9.10;99.90;;;;;;4990186;28;20038;-75
2022/04/05 06:25:30;;;;;;;31.77;18.10;;;9.20;99.90;;;;;;4970536;28;20126;-74
2022/04/05 06:27:57;;;;;;;31.30;19.40;;;9.30;99.90;;;;;;4970586;28;20031;-74
2022/04/05 06:30:23;;;;;;;35.03;20.07;;;;;;;;;;4970671;28;20027;-75
2022/04/05 06:32:49;;;;;;;35.33;21.57;;;9.30;99.90;;;;;;4970660;28;20109;-75
2022/04/05 06:35:15;;;;;;;36.60;21.93;;;9.40;99.90;;;;;;4970772;28;20034;-74
2022/04/05 06:37:45;;;;;;;37.10;22.53;;;9.60;99.90;;;;;;4970418;28;20027;-75
2022/04/05 06:40:13;;;;;;;35.37;21.17;;;9.50;99.90;;;;;;4970881;28;20030;-75
2022/04/05 06:42:43;;;;;;;33.80;20.07;;;9.60;99.90;;;;;;4969501;28;20125;-75
2022/04/05 06:45:13;;;;;;;30.00;18.97;;;9.60;99.90;;;;;;4987850;28;20109;-75
2022/04/05 06:47:39;;;;;;;35.63;21.53;;;;;;;;;;4989508;28;20053;-75
2022/04/05 06:50:07;;;;;;;40.63;21.27;;;9.60;99.90;;;;;;4988173;28;20492;-75
2022/04/05 06:52:33;;;;;;;31.03;19.83;;;9.80;99.90;;;;;;4989015;28;20578;-74
2022/04/05 06:54:59;;;;;;;33.70;21.67;;;9.70;99.90;;;;;;4989350;28;20034;-74
2022/04/05 06:57:24;;;;;;;39.73;20.73;;;9.90;99.90;;;;;;4985468;28;20073;-74
2022/04/05 06:59:50;;;;;;;33.67;21.27;;;9.70;99.90;;;;;;4970570;28;20038;-74
2022/04/05 07:02:16;;;;;;;38.63;20.20;;;;;;;;;;4988945;28;20396;-74
2022/04/05 07:04:41;;;;;;;36.87;20.80;;;9.80;99.90;;;;;;4988450;28;20038;-75
2022/04/05 07:07:07;;;;;;;33.50;19.53;;;9.70;99.90;;;;;;4989171;28;20514;-75
2022/04/05 07:09:32;;;;;;;28.63;18.13;;;9.70;99.90;;;;;;4974975;28;20038;-75
2022/04/05 07:11:58;;;;;;;29.37;17.27;;;9.70;99.90;;;;;;4983245;28;20391;-75
2022/04/05 07:14:24;;;;;;;29.07;17.70;;;;;;;;;;4988489;28;20031;-75
2022/04/05 07:16:49;;;;;;;24.80;15.73;;;9.80;99.90;;;;;;4988444;28;20487;-74
2022/04/05 07:19:15;;;;;;;26.73;17.20;;;;;;;;;;4989047;28;20037;-75
2022/04/05 07:21:41;;;;;;;27.57;16.87;;;9.90;99.90;;;;;;4988607;28;20486;-75
2022/04/05 07:24:07;;;;;;;24.17;16.23;;;10.00;99.90;;;;;;4988754;28;20069;-75
2022/04/05 07:26:32;;;;;;;33.50;16.63;;;;;;;;;;4987818;28;20050;-75
2022/04/05 07:28:58;;;;;;;27.00;16.47;;;;;;;;;;4987025;28;20105;-75
2022/04/05 07:31:24;;;;;;;25.30;15.03;;;9.70;99.90;;;;;;4988324;28;20022;-75
2022/04/05 07:33:49;;;;;;;22.93;15.13;;;10.00;99.90;;;;;;4988388;28;20046;-75
2022/04/05 07:36:15;;;;;;;24.60;15.27;;;10.00;99.90;;;;;;4988417;28;20372;-75
2022/04/05 07:38:40;;;;;;;22.00;15.37;;;9.90;99.90;;;;;;4987443;28;20443;-75
2022/04/05 07:41:06;;;;;;;17.53;14.07;;;10.10;99.90;;;;;;4988060;28;20041;-75
2022/04/05 07:43:33;;;;;;;22.07;14.90;;;10.30;99.90;;;;;;4987971;28;20457;-75
2022/04/05 07:45:58;;;;;;;21.03;12.83;;;10.20;99.90;;;;;;4988592;28;20042;-74
2022/04/05 07:48:27;;;;;;;17.83;12.20;;;10.40;99.90;;;;;;4987874;28;20089;-75
2022/04/05 07:50:54;;;;;;;23.07;12.47;;;10.80;99.90;;;;;;4987942;28;20967;-74
2022/04/05 07:53:19;;;;;;;23.80;12.97;;;10.40;99.90;;;;;;4985958;28;20031;-74
2022/04/05 07:55:45;;;;;;;16.17;11.93;;;10.40;99.90;;;;;;4987111;28;20085;-73
2022/04/05 07:58:11;;;;;;;21.43;12.97;;;10.40;99.90;;;;;;4987559;28;20058;-74
2022/04/05 08:00:37;;;;;;;18.53;12.77;;;10.40;99.90;;;;;;4987805;28;20088;-73
2022/04/05 08:03:03;;;;;;;18.87;12.83;;;;;;;;;;4988499;28;20073;-73
2022/04/05 08:05:28;;;;;;;19.63;12.03;;;10.50;99.90;;;;;;4988214;28;20086;-73
2022/04/05 08:07:54;;;;;;;20.40;12.70;;;10.40;99.90;;;;;;4986968;28;20069;-73
2022/04/05 08:10:20;;;;;;;17.53;12.07;;;10.50;99.90;;;;;;4988215;28;20121;-73
2022/04/05 08:12:48;;;;;;;15.47;11.03;;;10.40;99.90;;;;;;4988720;28;20110;-74
2022/04/05 08:15:19;;;;;;;21.33;15.40;;;10.50;99.90;;;;;;4991453;28;20049;-74
2022/04/05 08:17:46;;;;;;;17.37;11.63;;;10.40;99.90;;;;;;4990081;28;20457;-76
2022/04/05 08:20:13;;;;;;;12.60;9.47;;;10.50;99.90;;;;;;4990776;28;20026;-75
2022/04/05 08:22:40;;;;;;;16.47;9.80;;;10.30;99.90;;;;;;4985104;28;20148;-75
2022/04/05 08:25:06;;;;;;;12.97;9.80;;;10.40;99.90;;;;;;4990683;28;20108;-75
2022/04/05 08:27:33;;;;;;;15.93;9.67;;;;;;;;;;4990303;28;20042;-75
2022/04/05 08:29:59;;;;;;;12.00;9.23;;;10.80;99.90;;;;;;4992033;28;20018;-75
2022/04/05 08:32:26;;;;;;;15.87;9.07;;;10.50;99.90;;;;;;4985489;28;20030;-76
2022/04/05 08:34:52;;;;;;;16.57;10.97;;;10.50;99.90;;;;;;4989745;28;20189;-75
2022/04/05 08:37:17;;;;;;;17.07;10.27;;;10.50;99.90;;;;;;4991610;28;20097;-75
2022/04/05 08:39:43;;;;;;;17.27;10.90;;;10.80;99.90;;;;;;4990185;28;20076;-75
2022/04/05 08:42:10;;;;;;;18.63;10.33;;;10.60;99.90;;;;;;4990903;28;20400;-75
2022/04/05 08:44:35;;;;;;;17.23;11.00;;;10.70;99.90;;;;;;4991233;28;20395;-75
2022/04/05 08:47:03;;;;;;;15.73;10.63;;;10.50;99.90;;;;;;4991727;28;20023;-75
2022/04/05 08:49:30;;;;;;;12.50;10.10;;;10.70;99.90;;;;;;4990885;28;20110;-75
2022/04/05 08:51:56;;;;;;;16.30;10.13;;;;;;;;;;4990416;28;20033;-75
2022/04/05 08:54:22;;;;;;;13.00;10.23;;;10.60;99.90;;;;;;4991230;28;20487;-75
2022/04/05 08:56:50;;;;;;;15.53;10.77;;;11.00;99.90;;;;;;4991565;28;20026;-75
2022/04/05 08:59:16;;;;;;;16.00;9.43;;;11.00;99.90;;;;;;4990952;28;20032;-75
2022/04/05 09:01:41;;;;;;;15.43;10.13;;;11.00;99.90;;;;;;4991117;28;20471;-76
2022/04/05 09:04:07;;;;;;;13.27;10.30;;;11.20;99.90;;;;;;4987952;28;20035;-75
2022/04/05 09:06:35;;;;;;;15.10;10.83;;;11.30;99.90;;;;;;4990641;28;20459;-76
2022/04/05 09:09:19;;;;;;;17.37;10.83;;;11.10;99.90;;;;;;4990277;28;20026;-76
2022/04/05 09:11:47;;;;;;;10.55;8.63;;;11.50;99.90;;;;;;4990902;28;20037;-75
2022/04/05 09:14:13;;;;;;;15.70;10.17;;;11.40;99.90;;;;;;4991498;28;20034;-75
2022/04/05 09:16:39;;;;;;;11.50;8.93;;;11.60;99.90;;;;;;4981788;28;20197;-75
2022/04/05 09:19:14;;;;;;;13.13;9.20;;;11.70;99.90;;;;;;4985850;28;20117;-75
2022/04/05 09:21:53;;;;;;;18.63;9.80;;;11.50;99.90;;;;;;4988898;28;20037;-75
2022/04/05 09:24:19;;;;;;;14.00;9.70;;;11.80;99.90;;;;;;4985982;28;20030;-75
2022/04/05 09:26:46;;;;;;;14.52;8.88;;;11.60;99.90;;;;;;4989012;28;20050;-75
2022/04/05 09:29:12;;;;;;;15.87;8.60;;;11.80;99.90;;;;;;4995677;28;20018;-75
2022/04/05 09:31:48;;;;;;;12.53;9.80;;;11.90;99.90;;;;;;4990855;28;20409;-75
2022/04/05 09:34:17;;;;;;;12.67;8.13;;;11.80;99.90;;;;;;4990712;28;20523;-75
2022/04/05 09:36:45;;;;;;;15.17;8.37;;;11.80;99.90;;;;;;4993747;28;20035;-75
2022/04/05 09:39:24;;;;;;;11.90;7.50;;;11.70;99.90;;;;;;4989664;28;20391;-75
2022/04/05 09:42:03;;;;;;;12.97;8.47;;;11.60;99.90;;;;;;4989932;28;20105;-75
2022/04/05 09:44:30;;;;;;;9.45;7.30;;;11.60;99.90;;;;;;4990481;28;20500;-75
2022/04/05 09:47:16;;;;;;;11.50;7.30;;;11.40;99.90;;;;;;4990846;28;20022;-75
2022/04/05 09:49:43;;;;;;;10.10;7.37;;;11.20;99.90;;;;;;4989825;28;20069;-75
2022/04/05 09:52:25;;;;;;;6.77;6.00;;;11.50;99.90;;;;;;5004610;28;20026;-75
2022/04/05 09:54:51;;;;;;;10.02;6.70;;;11.80;99.90;;;;;;4988959;28;20181;-75
2022/04/05 09:57:29;;;;;;;10.27;6.57;;;11.90;99.90;;;;;;5000021;28;20041;-74
2022/04/05 10:00:11;;;;;;;8.85;6.47;;;14.20;99.90;;;;;;5002273;28;20113;-73
2022/04/05 10:02:57;;;;;;;9.90;7.23;;;11.70;99.90;;;;;;4988391;28;20030;-75
2022/04/05 10:05:22;;;;;;;8.50;5.45;;;11.90;99.90;;;;;;4990042;28;20035;-74
2022/04/05 10:07:48;;;;;;;7.87;5.63;;;12.00;99.90;;;;;;5001924;28;20030;-74
2022/04/05 10:10:14;;;;;;;7.85;6.55;;;12.10;99.90;;;;;;4972780;28;20030;-74
2022/04/05 10:12:40;;;;;;;8.87;6.63;;;11.60;99.90;;;;;;4989715;28;20018;-74
2022/04/05 10:15:06;;;;;;;10.73;7.43;;;11.50;99.90;;;;;;4990432;28;20344;-74
2022/04/05 10:17:33;;;;;;;9.13;7.67;;;11.10;99.90;;;;;;4989780;28;20018;-75
2022/04/05 10:20:01;;;;;;;9.20;8.30;;;11.40;99.90;;;;;;4983773;28;20045;-75
2022/04/05 10:22:26;;;;;;;13.13;8.43;;;11.20;99.90;;;;;;4990289;28;20034;-74
2022/04/05 10:24:54;;;;;;;12.63;10.20;;;11.20;99.90;;;;;;4989967;28;20050;-75
2022/04/05 10:27:21;;;;;;;11.90;9.87;;;11.50;99.90;;;;;;4989751;28;20022;-74
2022/04/05 10:30:05;;;;;;;14.47;10.97;;;11.60;99.90;;;;;;4988148;28;20038;-72
2022/04/05 10:32:33;;;;;;;;;;;11.60;99.90;;;;;;4968327;28;20034;-72
2022/04/05 10:35:08;;;;;;;17.47;10.90;;;11.90;99.90;;;;;;4988966;28;19910;-72
2022/04/05 10:37:38;;;;;;;13.27;10.37;;;11.60;99.90;;;;;;4988654;28;20033;-73
2022/04/05 10:40:04;;;;;;;12.20;10.90;;;11.50;99.90;;;;;;4989587;28;20030;-75
2022/04/05 10:42:36;;;;;;;12.20;10.88;;;11.60;99.90;;;;;;4988777;28;20033;-73
2022/04/05 10:45:15;;;;;;;17.07;10.93;;;11.50;99.90;;;;;;4988852;28;20195;-74
2022/04/05 10:48:12;;;;;;;13.30;10.38;;;11.50;99.90;;;;;;4987833;28;20036;-74
2022/04/05 10:50:41;;;;;;;13.47;10.53;;;11.60;99.90;;;;;;4972583;28;20381;-73
2022/04/05 10:53:32;;;;;;;11.67;9.67;;;11.50;99.90;;;;;;4989724;28;20026;-73
2022/04/05 10:56:03;;;;;;;14.00;9.77;;;11.70;99.90;;;;;;4979633;28;20431;-73
2022/04/05 10:58:34;;;;;;;12.73;9.63;;;11.70;99.90;;;;;;4988450;28;20446;-74
2022/04/05 11:01:19;;;;;;;12.67;9.90;;;11.60;99.90;;;;;;4989510;28;20038;-74
2022/04/05 11:04:10;;;;;;;11.83;9.40;;;11.60;99.90;;;;;;4988515;28;20041;-74
2022/04/05 11:09:30;;;;;;;11.87;10.13;;;11.40;99.90;;;;;;4989170;28;20057;-74
2022/04/05 11:11:56;;;;;;;12.70;10.33;;;11.20;99.90;;;;;;4989320;28;20034;-73
2022/04/05 11:14:43;;;;;;;13.27;10.57;;;11.40;99.90;;;;;;4989412;28;20369;-74
2022/04/05 11:17:10;;;;;;;14.13;9.67;;;11.30;99.90;;;;;;5001263;28;20088;-74
2022/04/05 11:19:38;;;;;;;13.20;10.90;;;11.30;99.90;;;;;;4987703;28;20022;-74
2022/04/05 11:22:25;;;;;;;12.93;10.80;;;11.40;99.90;;;;;;4988975;28;20038;-74
2022/04/05 11:25:04;;;;;;;18.77;10.83;;;11.60;99.90;;;;;;4988193;28;20046;-74
2022/04/05 11:27:52;;;;;;;14.38;11.35;;;11.70;99.90;;;;;;4985070;28;20034;-74
2022/04/05 11:30:26;;;;;;;15.68;9.90;;;11.60;99.90;;;;;;4989033;28;20029;-74
2022/04/05 11:33:13;;;;;;;14.98;9.93;;;11.70;99.90;;;;;;4987158;28;20475;-74
2022/04/05 11:35:41;;;;;;;10.95;9.50;;;11.60;99.90;;;;;;4983345;28;20379;-75
2022/04/05 11:38:27;;;;;;;11.40;10.03;;;11.70;99.90;;;;;;4997903;28;20173;-74
2022/04/05 11:40:58;;;;;;;15.07;9.33;;;11.80;99.90;;;;;;4989151;28;20054;-73
2022/04/05 11:43:41;;;;;;;16.90;9.80;;;12.00;99.90;;;;;;4988901;28;20031;-73
2022/04/05 11:46:16;;;;;;;13.90;10.00;;;12.20;99.90;;;;;;4990880;28;20054;-74
2022/04/05 11:48:50;;;;;;;11.63;9.00;;;12.20;99.90;;;;;;4986787;28;20048;-73
2022/04/05 11:51:18;;;;;;;11.55;8.90;;;12.20;99.90;;;;;;4972110;28;20493;-74
2022/04/05 11:53:44;;;;;;;11.03;9.53;;;12.30;99.90;;;;;;4991504;28;20053;-74
2022/04/05 11:56:22;;;;;;;12.10;9.73;;;12.20;99.90;;;;;;4992917;28;20023;-74
2022/04/05 11:58:52;;;;;;;13.47;10.13;;;12.40;99.90;;;;;;4992620;28;20022;-74
2022/04/05 12:01:28;;;;;;;14.07;10.05;;;12.30;99.90;;;;;;4991837;28;20383;-74
2022/04/05 12:04:03;;;;;;;14.50;10.83;;;12.00;99.90;;;;;;4987927;28;20033;-74
2022/04/05 12:06:32;;;;;;;12.55;9.23;;;12.50;99.90;;;;;;4992229;28;20038;-74
2022/04/05 12:09:00;;;;;;;10.48;9.45;;;12.50;99.90;;;;;;4992781;28;20019;-74
2022/04/05 12:11:27;;;;;;;10.57;9.00;;;12.40;99.90;;;;;;4991167;28;20041;-74
2022/04/05 12:13:56;;;;;;;13.98;9.45;;;12.40;99.90;;;;;;5003768;28;20061;-75
2022/04/05 12:16:23;;;;;;;12.70;9.15;;;12.40;99.90;;;;;;4991723;28;20025;-76
2022/04/05 12:18:51;;;;;;;12.32;10.27;;;12.50;99.90;;;;;;4991869;28;20023;-75
2022/04/05 12:21:17;;;;;;;11.38;9.07;;;;;;;;;;4990962;28;20026;-74
2022/04/05 12:23:45;;;;;;;12.75;8.93;;;13.40;99.90;;;;;;4992009;28;20097;-75
2022/04/05 12:26:15;;;;;;;8.95;7.95;;;13.30;99.90;;;;;;4992199;28;20058;-75
2022/04/05 12:28:45;;;;;;;11.15;8.43;;;13.30;99.90;;;;;;4991961;28;20468;-75
2022/04/05 12:31:21;;;;;;;8.43;7.32;;;13.30;99.90;;;;;;4992197;28;20110;-74
2022/04/05 12:33:53;;;;;;;8.38;7.07;;;13.40;99.90;;;;;;4991803;28;20038;-75
2022/04/05 12:36:20;;;;;;;12.27;7.40;;;13.40;99.90;;;;;;4972941;28;20337;-76
2022/04/05 12:38:46;;;;;;;8.68;6.32;;;12.90;99.90;;;;;;4983786;28;20019;-75
2022/04/05 12:41:19;;;;;;;9.15;7.10;;;13.10;99.90;;;;;;4973205;28;20029;-74
2022/04/05 12:43:46;;;;;;;10.97;8.50;;;12.80;99.90;;;;;;4972579;28;20031;-74
2022/04/05 12:46:13;;;;;;;10.60;9.48;;;12.60;99.90;;;;;;4982451;28;20038;-74
2022/04/05 12:48:40;;;;;;;12.35;10.70;;;12.50;99.90;;;;;;4974174;28;20019;-73
2022/04/05 12:51:05;;;;;;;14.52;12.95;;;12.20;99.90;;;;;;4976044;28;20088;-74
2022/04/05 12:53:37;;;;;;;13.25;12.15;;;12.00;99.90;;;;;;4991350;28;20038;-74
2022/04/05 12:56:13;;;;;;;14.07;12.45;;;11.90;99.90;;;;;;4977948;28;20053;-75
2022/04/05 12:58:46;;;;;;;19.02;13.02;;;11.90;99.90;;;;;;4990483;28;20380;-74
2022/04/05 13:01:29;;;;;;;15.52;13.95;;;11.90;99.90;;;;;;4991121;28;20029;-74
2022/04/05 13:03:58;;;;;;;18.50;14.63;;;11.80;99.90;;;;;;4990974;28;20030;-74
2022/04/05 13:06:27;;;;;;;15.82;14.20;;;11.90;99.90;;;;;;4988659;28;20100;-74
2022/04/05 13:09:07;;;;;;;14.80;13.43;;;11.90;99.90;;;;;;4985662;28;20282;-74